sensor_id;sensor_type;location;lat;lon;timestamp;P1;durP1;ratioP1;P2;durP2;ratioP2
3299;SDS011;1662;49.310;8.134;2023-12-14T00:01:43;3.40;;;2.83;;
3299;SDS011;1662;49.310;8.134;2023-12-14T00:04:11;3.37;;;3.07;;
3299;SDS011;1662;49.310;8.134;2023-12-14T00:06:36;2.77;;;2.67;;
3299;SDS011;1662;49.310;8.134;2023-12-14T00:09:02;4.50;;;4.20;;
3299;SDS011;1662;49.310;8.134;2023-12-14T00:11:28;5.57;;;4.10;;
3299;SDS011;1662;49.310;8.134;2023-12-14T00:13:53;7.10;;;4.50;;
3299;SDS011;1662;49.310;8.134;2023-12-14T00:16:19;4.33;;;3.93;;
3299;SDS011;1662;49.310;8.134;2023-12-14T00:18:44;4.47;;;4.17;;
3299;SDS011;1662;49.310;8.134;2023-12-14T00:21:10;4.40;;;4.00;;
3299;SDS011;1662;49.310;8.134;2023-12-14T00:23:36;7.50;;;4.67;;
3299;SDS011;1662;49.310;8.134;2023-12-14T00:26:01;5.50;;;4.27;;
3299;SDS011;1662;49.310;8.134;2023-12-14T00:28:30;4.27;;;4.00;;
3299;SDS011;1662;49.310;8.134;2023-12-14T00:30:56;4.83;;;3.77;;
3299;SDS011;1662;49.310;8.134;2023-12-14T00:33:22;3.90;;;3.43;;
3299;SDS011;1662;49.310;8.134;2023-12-14T00:35:49;3.93;;;3.73;;
3299;SDS011;1662;49.310;8.134;2023-12-14T00:38:15;3.83;;;3.50;;
3299;SDS011;1662;49.310;8.134;2023-12-14T00:40:41;4.93;;;3.83;;
3299;SDS011;1662;49.310;8.134;2023-12-14T00:43:07;3.67;;;3.47;;
3299;SDS011;1662;49.310;8.134;2023-12-14T00:45:34;5.17;;;3.30;;
3299;SDS011;1662;49.310;8.134;2023-12-14T00:48:02;5.10;;;3.60;;
3299;SDS011;1662;49.310;8.134;2023-12-14T00:50:30;3.70;;;3.40;;
3299;SDS011;1662;49.310;8.134;2023-12-14T00:52:56;3.60;;;3.30;;
3299;SDS011;1662;49.310;8.134;2023-12-14T00:55:22;3.50;;;3.30;;
3299;SDS011;1662;49.310;8.134;2023-12-14T00:57:47;5.37;;;3.97;;
3299;SDS011;1662;49.310;8.134;2023-12-14T01:00:13;3.63;;;3.43;;
3299;SDS011;1662;49.310;8.134;2023-12-14T01:02:39;4.27;;;3.97;;
3299;SDS011;1662;49.310;8.134;2023-12-14T01:05:04;3.57;;;3.27;;
3299;SDS011;1662;49.310;8.134;2023-12-14T01:07:32;4.17;;;3.77;;
3299;SDS011;1662;49.310;8.134;2023-12-14T01:09:58;4.73;;;3.87;;
3299;SDS011;1662;49.310;8.134;2023-12-14T01:12:23;4.67;;;4.37;;
3299;SDS011;1662;49.310;8.134;2023-12-14T01:14:49;3.60;;;3.30;;
3299;SDS011;1662;49.310;8.134;2023-12-14T01:17:15;3.70;;;3.50;;
3299;SDS011;1662;49.310;8.134;2023-12-14T01:19:40;4.07;;;3.77;;
3299;SDS011;1662;49.310;8.134;2023-12-14T01:22:06;8.90;;;4.20;;
3299;SDS011;1662;49.310;8.134;2023-12-14T01:24:32;4.13;;;3.90;;
3299;SDS011;1662;49.310;8.134;2023-12-14T01:26:57;4.70;;;3.43;;
3299;SDS011;1662;49.310;8.134;2023-12-14T01:29:23;4.30;;;4.00;;
3299;SDS011;1662;49.310;8.134;2023-12-14T01:31:49;3.30;;;3.10;;
3299;SDS011;1662;49.310;8.134;2023-12-14T01:34:14;3.13;;;3.03;;
3299;SDS011;1662;49.310;8.134;2023-12-14T01:36:41;3.83;;;3.57;;
3299;SDS011;1662;49.310;8.134;2023-12-14T01:39:06;8.63;;;4.27;;
3299;SDS011;1662;49.310;8.134;2023-12-14T01:41:32;4.10;;;3.47;;
3299;SDS011;1662;49.310;8.134;2023-12-14T01:43:58;5.13;;;4.13;;
3299;SDS011;1662;49.310;8.134;2023-12-14T01:46:23;3.73;;;3.40;;
3299;SDS011;1662;49.310;8.134;2023-12-14T01:48:49;7.50;;;3.60;;
3299;SDS011;1662;49.310;8.134;2023-12-14T01:51:16;4.17;;;3.20;;
3299;SDS011;1662;49.310;8.134;2023-12-14T01:53:44;3.60;;;3.30;;
3299;SDS011;1662;49.310;8.134;2023-12-14T01:56:10;3.37;;;3.17;;
3299;SDS011;1662;49.310;8.134;2023-12-14T01:58:36;3.67;;;3.37;;
3299;SDS011;1662;49.310;8.134;2023-12-14T02:01:22;3.13;;;2.90;;
3299;SDS011;1662;49.310;8.134;2023-12-14T02:04:04;3.50;;;3.20;;
3299;SDS011;1662;49.310;8.134;2023-12-14T02:06:32;3.40;;;3.20;;
3299;SDS011;1662;49.310;8.134;2023-12-14T02:08:57;3.53;;;3.27;;
3299;SDS011;1662;49.310;8.134;2023-12-14T02:11:23;3.37;;;3.17;;
3299;SDS011;1662;49.310;8.134;2023-12-14T02:13:48;7.07;;;4.03;;
3299;SDS011;1662;49.310;8.134;2023-12-14T02:16:14;3.67;;;3.37;;
3299;SDS011;1662;49.310;8.134;2023-12-14T02:18:40;4.67;;;4.07;;
3299;SDS011;1662;49.310;8.134;2023-12-14T02:21:08;3.77;;;3.30;;
3299;SDS011;1662;49.310;8.134;2023-12-14T02:23:34;4.60;;;3.60;;
3299;SDS011;1662;49.310;8.134;2023-12-14T02:25:59;4.23;;;3.80;;
3299;SDS011;1662;49.310;8.134;2023-12-14T02:28:25;5.40;;;3.90;;
3299;SDS011;1662;49.310;8.134;2023-12-14T02:30:50;3.60;;;3.40;;
3299;SDS011;1662;49.310;8.134;2023-12-14T02:33:16;4.70;;;3.87;;
3299;SDS011;1662;49.310;8.134;2023-12-14T02:35:42;4.20;;;3.80;;
3299;SDS011;1662;49.310;8.134;2023-12-14T02:38:10;4.23;;;3.93;;
3299;SDS011;1662;49.310;8.134;2023-12-14T02:40:36;3.93;;;3.73;;
3299;SDS011;1662;49.310;8.134;2023-12-14T02:43:01;4.00;;;3.70;;
3299;SDS011;1662;49.310;8.134;2023-12-14T02:45:29;4.27;;;3.93;;
3299;SDS011;1662;49.310;8.134;2023-12-14T02:47:55;3.80;;;3.30;;
3299;SDS011;1662;49.310;8.134;2023-12-14T02:50:20;3.53;;;3.37;;
3299;SDS011;1662;49.310;8.134;2023-12-14T02:52:46;4.30;;;3.90;;
3299;SDS011;1662;49.310;8.134;2023-12-14T02:55:11;3.77;;;3.47;;
3299;SDS011;1662;49.310;8.134;2023-12-14T02:57:37;4.60;;;4.20;;
3299;SDS011;1662;49.310;8.134;2023-12-14T03:00:03;5.53;;;4.37;;
3299;SDS011;1662;49.310;8.134;2023-12-14T03:02:29;4.90;;;4.00;;
3299;SDS011;1662;49.310;8.134;2023-12-14T03:04:54;3.50;;;3.30;;
3299;SDS011;1662;49.310;8.134;2023-12-14T03:07:20;4.90;;;4.50;;
3299;SDS011;1662;49.310;8.134;2023-12-14T03:09:45;4.17;;;3.87;;
3299;SDS011;1662;49.310;8.134;2023-12-14T03:12:11;4.40;;;3.67;;
3299;SDS011;1662;49.310;8.134;2023-12-14T03:14:37;4.30;;;4.00;;
3299;SDS011;1662;49.310;8.134;2023-12-14T03:17:02;5.53;;;5.03;;
3299;SDS011;1662;49.310;8.134;2023-12-14T03:19:28;4.70;;;4.40;;
3299;SDS011;1662;49.310;8.134;2023-12-14T03:21:54;5.70;;;5.20;;
3299;SDS011;1662;49.310;8.134;2023-12-14T03:24:20;6.07;;;4.73;;
3299;SDS011;1662;49.310;8.134;2023-12-14T03:26:46;5.40;;;4.87;;
3299;SDS011;1662;49.310;8.134;2023-12-14T03:29:11;5.90;;;5.30;;
3299;SDS011;1662;49.310;8.134;2023-12-14T03:31:37;4.97;;;4.37;;
3299;SDS011;1662;49.310;8.134;2023-12-14T03:34:04;7.03;;;6.17;;
3299;SDS011;1662;49.310;8.134;2023-12-14T03:36:30;5.60;;;5.10;;
3299;SDS011;1662;49.310;8.134;2023-12-14T03:38:56;5.17;;;4.67;;
3299;SDS011;1662;49.310;8.134;2023-12-14T03:41:21;5.00;;;4.60;;
3299;SDS011;1662;49.310;8.134;2023-12-14T03:43:49;5.20;;;4.80;;
3299;SDS011;1662;49.310;8.134;2023-12-14T03:46:15;4.67;;;4.37;;
3299;SDS011;1662;49.310;8.134;2023-12-14T03:48:40;7.60;;;5.10;;
3299;SDS011;1662;49.310;8.134;2023-12-14T03:51:06;5.53;;;5.07;;
3299;SDS011;1662;49.310;8.134;2023-12-14T03:53:31;4.50;;;4.20;;
3299;SDS011;1662;49.310;8.134;2023-12-14T03:55:57;6.63;;;5.70;;
3299;SDS011;1662;49.310;8.134;2023-12-14T03:58:25;7.70;;;5.27;;
3299;SDS011;1662;49.310;8.134;2023-12-14T04:00:51;6.10;;;5.50;;
3299;SDS011;1662;49.310;8.134;2023-12-14T04:03:17;5.47;;;5.07;;
3299;SDS011;1662;49.310;8.134;2023-12-14T04:05:45;5.40;;;4.90;;
3299;SDS011;1662;49.310;8.134;2023-12-14T04:08:10;6.03;;;5.43;;
3299;SDS011;1662;49.310;8.134;2023-12-14T04:10:36;5.83;;;5.33;;
3299;SDS011;1662;49.310;8.134;2023-12-14T04:13:02;6.17;;;5.57;;
3299;SDS011;1662;49.310;8.134;2023-12-14T04:15:29;5.63;;;5.13;;
3299;SDS011;1662;49.310;8.134;2023-12-14T04:17:55;6.40;;;5.50;;
3299;SDS011;1662;49.310;8.134;2023-12-14T04:20:20;6.27;;;5.67;;
3299;SDS011;1662;49.310;8.134;2023-12-14T04:22:46;6.17;;;5.57;;
3299;SDS011;1662;49.310;8.134;2023-12-14T04:25:13;6.57;;;5.90;;
3299;SDS011;1662;49.310;8.134;2023-12-14T04:27:38;5.40;;;5.00;;
3299;SDS011;1662;49.310;8.134;2023-12-14T04:30:04;11.90;;;6.10;;
3299;SDS011;1662;49.310;8.134;2023-12-14T04:32:35;6.23;;;5.63;;
3299;SDS011;1662;49.310;8.134;2023-12-14T04:35:04;6.77;;;6.13;;
3299;SDS011;1662;49.310;8.134;2023-12-14T04:37:30;7.93;;;6.93;;
3299;SDS011;1662;49.310;8.134;2023-12-14T04:39:59;7.73;;;5.87;;
3299;SDS011;1662;49.310;8.134;2023-12-14T04:42:25;9.80;;;7.10;;
3299;SDS011;1662;49.310;8.134;2023-12-14T04:44:53;6.83;;;5.90;;
3299;SDS011;1662;49.310;8.134;2023-12-14T04:47:18;7.23;;;6.00;;
3299;SDS011;1662;49.310;8.134;2023-12-14T04:49:44;8.30;;;7.50;;
3299;SDS011;1662;49.310;8.134;2023-12-14T04:52:10;9.17;;;6.43;;
3299;SDS011;1662;49.310;8.134;2023-12-14T04:54:35;12.00;;;7.90;;
3299;SDS011;1662;49.310;8.134;2023-12-14T04:57:03;7.60;;;6.90;;
3299;SDS011;1662;49.310;8.134;2023-12-14T04:59:29;6.90;;;6.20;;
3299;SDS011;1662;49.310;8.134;2023-12-14T05:01:54;6.90;;;6.33;;
3299;SDS011;1662;49.310;8.134;2023-12-14T05:04:22;7.40;;;6.80;;
3299;SDS011;1662;49.310;8.134;2023-12-14T05:06:48;5.80;;;5.30;;
3299;SDS011;1662;49.310;8.134;2023-12-14T05:09:13;5.20;;;4.80;;
3299;SDS011;1662;49.310;8.134;2023-12-14T05:11:39;7.03;;;5.43;;
3299;SDS011;1662;49.310;8.134;2023-12-14T05:14:05;7.20;;;6.50;;
3299;SDS011;1662;49.310;8.134;2023-12-14T05:16:31;10.50;;;5.80;;
3299;SDS011;1662;49.310;8.134;2023-12-14T05:18:57;7.93;;;7.00;;
3299;SDS011;1662;49.310;8.134;2023-12-14T05:21:22;6.90;;;5.90;;
3299;SDS011;1662;49.310;8.134;2023-12-14T05:23:48;4.23;;;3.83;;
3299;SDS011;1662;49.310;8.134;2023-12-14T05:26:14;9.73;;;6.90;;
3299;SDS011;1662;49.310;8.134;2023-12-14T05:28:46;6.70;;;5.93;;
3299;SDS011;1662;49.310;8.134;2023-12-14T05:31:11;7.63;;;6.90;;
3299;SDS011;1662;49.310;8.134;2023-12-14T05:33:37;9.27;;;7.30;;
3299;SDS011;1662;49.310;8.134;2023-12-14T05:36:03;6.30;;;5.67;;
3299;SDS011;1662;49.310;8.134;2023-12-14T05:38:34;4.80;;;4.40;;
3299;SDS011;1662;49.310;8.134;2023-12-14T05:41:00;5.20;;;4.50;;
3299;SDS011;1662;49.310;8.134;2023-12-14T05:43:25;5.30;;;4.83;;
3299;SDS011;1662;49.310;8.134;2023-12-14T05:45:51;5.90;;;4.80;;
3299;SDS011;1662;49.310;8.134;2023-12-14T05:48:16;4.77;;;4.43;;
3299;SDS011;1662;49.310;8.134;2023-12-14T05:50:42;4.97;;;4.53;;
3299;SDS011;1662;49.310;8.134;2023-12-14T05:53:07;5.00;;;4.60;;
3299;SDS011;1662;49.310;8.134;2023-12-14T05:55:33;7.67;;;3.93;;
3299;SDS011;1662;49.310;8.134;2023-12-14T05:57:59;4.73;;;4.33;;
3299;SDS011;1662;49.310;8.134;2023-12-14T06:00:24;4.10;;;3.80;;
3299;SDS011;1662;49.310;8.134;2023-12-14T06:02:50;5.20;;;4.33;;
3299;SDS011;1662;49.310;8.134;2023-12-14T06:05:15;4.57;;;4.17;;
3299;SDS011;1662;49.310;8.134;2023-12-14T06:07:43;4.50;;;3.70;;
3299;SDS011;1662;49.310;8.134;2023-12-14T06:10:09;4.00;;;3.70;;
3299;SDS011;1662;49.310;8.134;2023-12-14T06:12:35;5.83;;;3.77;;
3299;SDS011;1662;49.310;8.134;2023-12-14T06:15:00;4.20;;;3.90;;
3299;SDS011;1662;49.310;8.134;2023-12-14T06:17:26;4.43;;;4.03;;
3299;SDS011;1662;49.310;8.134;2023-12-14T06:19:52;7.97;;;5.07;;
3299;SDS011;1662;49.310;8.134;2023-12-14T06:22:18;5.27;;;4.80;;
3299;SDS011;1662;49.310;8.134;2023-12-14T06:24:43;5.57;;;5.13;;
3299;SDS011;1662;49.310;8.134;2023-12-14T06:27:09;4.97;;;4.50;;
3299;SDS011;1662;49.310;8.134;2023-12-14T06:29:34;5.53;;;4.63;;
3299;SDS011;1662;49.310;8.134;2023-12-14T06:32:00;5.43;;;4.90;;
3299;SDS011;1662;49.310;8.134;2023-12-14T06:34:25;6.37;;;4.23;;
3299;SDS011;1662;49.310;8.134;2023-12-14T06:36:51;6.57;;;5.20;;
3299;SDS011;1662;49.310;8.134;2023-12-14T06:39:17;4.87;;;4.30;;
3299;SDS011;1662;49.310;8.134;2023-12-14T06:41:42;4.13;;;3.73;;
3299;SDS011;1662;49.310;8.134;2023-12-14T06:44:10;4.27;;;3.93;;
3299;SDS011;1662;49.310;8.134;2023-12-14T06:46:36;4.07;;;3.77;;
3299;SDS011;1662;49.310;8.134;2023-12-14T06:49:03;3.70;;;3.10;;
3299;SDS011;1662;49.310;8.134;2023-12-14T06:51:29;4.10;;;3.63;;
3299;SDS011;1662;49.310;8.134;2023-12-14T06:53:55;5.37;;;4.63;;
3299;SDS011;1662;49.310;8.134;2023-12-14T06:56:20;6.47;;;4.77;;
3299;SDS011;1662;49.310;8.134;2023-12-14T06:58:46;4.27;;;3.80;;
3299;SDS011;1662;49.310;8.134;2023-12-14T07:01:14;3.93;;;3.63;;
3299;SDS011;1662;49.310;8.134;2023-12-14T07:03:42;5.50;;;3.60;;
3299;SDS011;1662;49.310;8.134;2023-12-14T07:06:13;3.80;;;3.50;;
3299;SDS011;1662;49.310;8.134;2023-12-14T07:08:39;3.73;;;3.47;;
3299;SDS011;1662;49.310;8.134;2023-12-14T07:11:06;6.33;;;4.40;;
3299;SDS011;1662;49.310;8.134;2023-12-14T07:13:35;5.47;;;3.93;;
3299;SDS011;1662;49.310;8.134;2023-12-14T07:16:04;4.40;;;4.00;;
3299;SDS011;1662;49.310;8.134;2023-12-14T07:18:37;4.90;;;4.47;;
3299;SDS011;1662;49.310;8.134;2023-12-14T07:21:03;5.27;;;4.53;;
3299;SDS011;1662;49.310;8.134;2023-12-14T07:23:29;4.70;;;4.23;;
3299;SDS011;1662;49.310;8.134;2023-12-14T07:25:55;3.73;;;3.30;;
3299;SDS011;1662;49.310;8.134;2023-12-14T07:28:21;5.77;;;3.37;;
3299;SDS011;1662;49.310;8.134;2023-12-14T07:30:49;5.43;;;3.40;;
3299;SDS011;1662;49.310;8.134;2023-12-14T07:33:15;4.33;;;4.00;;
3299;SDS011;1662;49.310;8.134;2023-12-14T07:35:41;4.93;;;3.70;;
3299;SDS011;1662;49.310;8.134;2023-12-14T07:38:10;5.23;;;4.27;;
3299;SDS011;1662;49.310;8.134;2023-12-14T07:40:36;4.17;;;3.80;;
3299;SDS011;1662;49.310;8.134;2023-12-14T07:43:03;4.77;;;4.37;;
3299;SDS011;1662;49.310;8.134;2023-12-14T07:45:29;4.67;;;4.13;;
3299;SDS011;1662;49.310;8.134;2023-12-14T07:47:57;4.60;;;3.37;;
3299;SDS011;1662;49.310;8.134;2023-12-14T07:50:23;4.10;;;3.80;;
3299;SDS011;1662;49.310;8.134;2023-12-14T07:52:51;4.17;;;3.77;;
3299;SDS011;1662;49.310;8.134;2023-12-14T07:55:17;4.40;;;3.37;;
3299;SDS011;1662;49.310;8.134;2023-12-14T07:57:43;6.70;;;3.90;;
3299;SDS011;1662;49.310;8.134;2023-12-14T08:00:09;4.20;;;3.87;;
3299;SDS011;1662;49.310;8.134;2023-12-14T08:02:35;5.23;;;4.00;;
3299;SDS011;1662;49.310;8.134;2023-12-14T08:05:01;4.77;;;4.30;;
3299;SDS011;1662;49.310;8.134;2023-12-14T08:07:27;4.87;;;4.40;;
3299;SDS011;1662;49.310;8.134;2023-12-14T08:09:54;7.93;;;5.10;;
3299;SDS011;1662;49.310;8.134;2023-12-14T08:12:20;8.43;;;4.63;;
3299;SDS011;1662;49.310;8.134;2023-12-14T08:14:47;9.33;;;4.47;;
3299;SDS011;1662;49.310;8.134;2023-12-14T08:17:12;5.13;;;4.70;;
3299;SDS011;1662;49.310;8.134;2023-12-14T08:19:38;5.37;;;4.87;;
3299;SDS011;1662;49.310;8.134;2023-12-14T08:22:04;6.50;;;4.93;;
3299;SDS011;1662;49.310;8.134;2023-12-14T08:24:29;5.37;;;4.17;;
3299;SDS011;1662;49.310;8.134;2023-12-14T08:26:55;4.60;;;4.20;;
3299;SDS011;1662;49.310;8.134;2023-12-14T08:29:21;9.00;;;4.90;;
3299;SDS011;1662;49.310;8.134;2023-12-14T08:31:47;5.70;;;5.20;;
3299;SDS011;1662;49.310;8.134;2023-12-14T08:34:13;7.73;;;5.07;;
3299;SDS011;1662;49.310;8.134;2023-12-14T08:36:39;4.60;;;4.20;;
3299;SDS011;1662;49.310;8.134;2023-12-14T08:39:07;4.87;;;4.47;;
3299;SDS011;1662;49.310;8.134;2023-12-14T08:41:33;5.27;;;4.40;;
3299;SDS011;1662;49.310;8.134;2023-12-14T08:44:01;5.63;;;5.13;;
3299;SDS011;1662;49.310;8.134;2023-12-14T08:46:26;4.90;;;4.17;;
3299;SDS011;1662;49.310;8.134;2023-12-14T08:48:52;5.10;;;4.67;;
3299;SDS011;1662;49.310;8.134;2023-12-14T08:51:18;4.60;;;4.20;;
3299;SDS011;1662;49.310;8.134;2023-12-14T08:53:45;5.20;;;4.70;;
3299;SDS011;1662;49.310;8.134;2023-12-14T08:56:13;4.00;;;3.70;;
3299;SDS011;1662;49.310;8.134;2023-12-14T08:58:39;4.53;;;4.20;;
3299;SDS011;1662;49.310;8.134;2023-12-14T09:01:04;4.67;;;3.60;;
3299;SDS011;1662;49.310;8.134;2023-12-14T09:03:30;6.27;;;4.00;;
3299;SDS011;1662;49.310;8.134;2023-12-14T09:05:56;6.63;;;5.10;;
3299;SDS011;1662;49.310;8.134;2023-12-14T09:08:24;8.20;;;4.50;;
3299;SDS011;1662;49.310;8.134;2023-12-14T09:10:49;5.13;;;4.73;;
3299;SDS011;1662;49.310;8.134;2023-12-14T09:13:15;6.10;;;4.63;;
3299;SDS011;1662;49.310;8.134;2023-12-14T09:15:40;6.77;;;4.93;;
3299;SDS011;1662;49.310;8.134;2023-12-14T09:18:08;5.70;;;5.07;;
3299;SDS011;1662;49.310;8.134;2023-12-14T09:20:34;5.07;;;4.67;;
3299;SDS011;1662;49.310;8.134;2023-12-14T09:23:02;5.53;;;5.00;;
3299;SDS011;1662;49.310;8.134;2023-12-14T09:25:28;8.67;;;5.80;;
3299;SDS011;1662;49.310;8.134;2023-12-14T09:27:54;5.57;;;5.07;;
3299;SDS011;1662;49.310;8.134;2023-12-14T09:30:19;5.60;;;4.73;;
3299;SDS011;1662;49.310;8.134;2023-12-14T09:32:45;5.80;;;5.20;;
3299;SDS011;1662;49.310;8.134;2023-12-14T09:35:10;5.07;;;4.53;;
3299;SDS011;1662;49.310;8.134;2023-12-14T09:37:36;4.47;;;4.07;;
3299;SDS011;1662;49.310;8.134;2023-12-14T09:40:02;5.80;;;4.70;;
3299;SDS011;1662;49.310;8.134;2023-12-14T09:42:29;5.90;;;5.27;;
3299;SDS011;1662;49.310;8.134;2023-12-14T09:45:03;7.47;;;4.97;;
3299;SDS011;1662;49.310;8.134;2023-12-14T09:47:29;5.00;;;4.50;;
3299;SDS011;1662;49.310;8.134;2023-12-14T09:49:54;6.70;;;4.67;;
3299;SDS011;1662;49.310;8.134;2023-12-14T09:52:20;6.40;;;5.30;;
3299;SDS011;1662;49.310;8.134;2023-12-14T09:54:46;6.10;;;4.50;;
3299;SDS011;1662;49.310;8.134;2023-12-14T09:57:11;5.40;;;4.70;;
3299;SDS011;1662;49.310;8.134;2023-12-14T09:59:37;5.63;;;4.77;;
3299;SDS011;1662;49.310;8.134;2023-12-14T10:02:12;8.30;;;4.97;;
3299;SDS011;1662;49.310;8.134;2023-12-14T10:04:38;5.70;;;5.00;;
3299;SDS011;1662;49.310;8.134;2023-12-14T10:07:07;4.90;;;4.47;;
3299;SDS011;1662;49.310;8.134;2023-12-14T10:09:36;5.87;;;5.17;;
3299;SDS011;1662;49.310;8.134;2023-12-14T10:12:03;7.30;;;5.00;;
3299;SDS011;1662;49.310;8.134;2023-12-14T10:14:34;6.67;;;4.87;;
3299;SDS011;1662;49.310;8.134;2023-12-14T10:19:46;7.27;;;4.63;;
3299;SDS011;1662;49.310;8.134;2023-12-14T10:22:16;5.50;;;4.67;;
3299;SDS011;1662;49.310;8.134;2023-12-14T10:24:46;4.30;;;4.00;;
3299;SDS011;1662;49.310;8.134;2023-12-14T10:27:13;6.63;;;4.60;;
3299;SDS011;1662;49.310;8.134;2023-12-14T10:29:40;6.60;;;5.67;;
3299;SDS011;1662;49.310;8.134;2023-12-14T10:32:07;5.23;;;4.73;;
3299;SDS011;1662;49.310;8.134;2023-12-14T10:34:34;6.93;;;5.07;;
3299;SDS011;1662;49.310;8.134;2023-12-14T10:37:00;4.40;;;4.10;;
3299;SDS011;1662;49.310;8.134;2023-12-14T10:39:29;5.57;;;5.07;;
3299;SDS011;1662;49.310;8.134;2023-12-14T10:41:56;5.57;;;4.80;;
3299;SDS011;1662;49.310;8.134;2023-12-14T10:44:25;6.17;;;5.27;;
3299;SDS011;1662;49.310;8.134;2023-12-14T10:46:54;5.00;;;4.50;;
3299;SDS011;1662;49.310;8.134;2023-12-14T10:49:26;4.40;;;4.00;;
3299;SDS011;1662;49.310;8.134;2023-12-14T10:51:54;5.70;;;5.20;;
3299;SDS011;1662;49.310;8.134;2023-12-14T10:54:23;5.17;;;4.50;;
3299;SDS011;1662;49.310;8.134;2023-12-14T10:56:57;3.97;;;3.70;;
3299;SDS011;1662;49.310;8.134;2023-12-14T10:59:23;4.53;;;4.23;;
3299;SDS011;1662;49.310;8.134;2023-12-14T11:01:53;8.93;;;4.77;;
3299;SDS011;1662;49.310;8.134;2023-12-14T11:04:22;5.23;;;4.33;;
3299;SDS011;1662;49.310;8.134;2023-12-14T11:06:48;5.73;;;5.17;;
3299;SDS011;1662;49.310;8.134;2023-12-14T11:09:16;6.50;;;4.37;;
3299;SDS011;1662;49.310;8.134;2023-12-14T11:14:15;5.07;;;4.57;;
3299;SDS011;1662;49.310;8.134;2023-12-14T11:16:43;5.07;;;4.57;;
3299;SDS011;1662;49.310;8.134;2023-12-14T11:24:20;4.87;;;4.43;;
3299;SDS011;1662;49.310;8.134;2023-12-14T11:26:46;6.07;;;5.20;;
3299;SDS011;1662;49.310;8.134;2023-12-14T11:29:14;5.20;;;4.70;;
3299;SDS011;1662;49.310;8.134;2023-12-14T11:31:40;5.30;;;4.67;;
3299;SDS011;1662;49.310;8.134;2023-12-14T11:34:06;4.87;;;4.47;;
3299;SDS011;1662;49.310;8.134;2023-12-14T11:36:32;4.60;;;4.20;;
3299;SDS011;1662;49.310;8.134;2023-12-14T11:38:58;5.77;;;5.27;;
3299;SDS011;1662;49.310;8.134;2023-12-14T11:41:24;5.37;;;4.87;;
3299;SDS011;1662;49.310;8.134;2023-12-14T11:43:50;6.43;;;5.83;;
3299;SDS011;1662;49.310;8.134;2023-12-14T11:46:17;6.87;;;5.90;;
3299;SDS011;1662;49.310;8.134;2023-12-14T11:48:46;8.93;;;7.00;;
3299;SDS011;1662;49.310;8.134;2023-12-14T11:51:13;6.40;;;5.43;;
3299;SDS011;1662;49.310;8.134;2023-12-14T11:53:40;6.43;;;5.77;;
3299;SDS011;1662;49.310;8.134;2023-12-14T11:56:09;3.97;;;3.70;;
3299;SDS011;1662;49.310;8.134;2023-12-14T11:58:39;7.10;;;5.10;;
3299;SDS011;1662;49.310;8.134;2023-12-14T12:03:41;8.27;;;5.57;;
3299;SDS011;1662;49.310;8.134;2023-12-14T12:06:09;5.93;;;4.43;;
3299;SDS011;1662;49.310;8.134;2023-12-14T12:08:47;6.00;;;5.17;;
3299;SDS011;1662;49.310;8.134;2023-12-14T12:11:17;4.80;;;4.40;;
3299;SDS011;1662;49.310;8.134;2023-12-14T12:13:43;5.77;;;5.27;;
3299;SDS011;1662;49.310;8.134;2023-12-14T12:16:08;5.50;;;4.80;;
3299;SDS011;1662;49.310;8.134;2023-12-14T12:18:34;5.90;;;5.30;;
3299;SDS011;1662;49.310;8.134;2023-12-14T12:20:59;5.30;;;4.90;;
3299;SDS011;1662;49.310;8.134;2023-12-14T12:23:29;6.57;;;5.33;;
3299;SDS011;1662;49.310;8.134;2023-12-14T12:25:54;6.03;;;5.37;;
3299;SDS011;1662;49.310;8.134;2023-12-14T12:28:20;4.10;;;3.70;;
3299;SDS011;1662;49.310;8.134;2023-12-14T12:30:47;5.17;;;4.67;;
3299;SDS011;1662;49.310;8.134;2023-12-14T12:33:15;4.90;;;4.50;;
3299;SDS011;1662;49.310;8.134;2023-12-14T12:35:40;3.57;;;3.37;;
3299;SDS011;1662;49.310;8.134;2023-12-14T12:38:06;3.27;;;3.07;;
3299;SDS011;1662;49.310;8.134;2023-12-14T12:40:31;3.20;;;3.00;;
3299;SDS011;1662;49.310;8.134;2023-12-14T12:42:58;4.27;;;3.40;;
3299;SDS011;1662;49.310;8.134;2023-12-14T12:45:24;2.47;;;2.37;;
3299;SDS011;1662;49.310;8.134;2023-12-14T12:47:52;4.83;;;3.30;;
3299;SDS011;1662;49.310;8.134;2023-12-14T12:50:18;3.20;;;3.00;;
3299;SDS011;1662;49.310;8.134;2023-12-14T12:52:45;3.37;;;3.13;;
3299;SDS011;1662;49.310;8.134;2023-12-14T12:55:13;4.70;;;3.97;;
3299;SDS011;1662;49.310;8.134;2023-12-14T12:57:39;3.53;;;3.00;;
3299;SDS011;1662;49.310;8.134;2023-12-14T13:00:06;3.30;;;2.40;;
3299;SDS011;1662;49.310;8.134;2023-12-14T13:02:36;2.47;;;2.37;;
3299;SDS011;1662;49.310;8.134;2023-12-14T13:05:04;3.10;;;2.90;;
3299;SDS011;1662;49.310;8.134;2023-12-14T13:07:31;2.40;;;2.30;;
3299;SDS011;1662;49.310;8.134;2023-12-14T13:09:56;2.93;;;2.23;;
3299;SDS011;1662;49.310;8.134;2023-12-14T13:12:22;2.47;;;2.37;;
3299;SDS011;1662;49.310;8.134;2023-12-14T13:14:48;2.57;;;2.43;;
3299;SDS011;1662;49.310;8.134;2023-12-14T13:17:15;2.60;;;2.40;;
3299;SDS011;1662;49.310;8.134;2023-12-14T13:19:43;1.90;;;1.80;;
3299;SDS011;1662;49.310;8.134;2023-12-14T13:22:09;2.40;;;2.30;;
3299;SDS011;1662;49.310;8.134;2023-12-14T13:24:36;2.40;;;2.30;;
3299;SDS011;1662;49.310;8.134;2023-12-14T13:27:02;2.20;;;2.00;;
3299;SDS011;1662;49.310;8.134;2023-12-14T13:29:30;2.23;;;2.10;;
3299;SDS011;1662;49.310;8.134;2023-12-14T13:31:57;2.97;;;2.77;;
3299;SDS011;1662;49.310;8.134;2023-12-14T13:34:24;4.30;;;2.57;;
3299;SDS011;1662;49.310;8.134;2023-12-14T13:36:50;12.17;;;3.50;;
3299;SDS011;1662;49.310;8.134;2023-12-14T13:39:15;3.33;;;2.90;;
3299;SDS011;1662;49.310;8.134;2023-12-14T13:41:41;2.63;;;2.43;;
3299;SDS011;1662;49.310;8.134;2023-12-14T13:44:09;2.20;;;2.10;;
3299;SDS011;1662;49.310;8.134;2023-12-14T13:46:35;2.17;;;2.07;;
3299;SDS011;1662;49.310;8.134;2023-12-14T13:49:00;2.23;;;2.13;;
3299;SDS011;1662;49.310;8.134;2023-12-14T13:51:27;2.70;;;2.50;;
3299;SDS011;1662;49.310;8.134;2023-12-14T13:53:55;2.20;;;2.10;;
3299;SDS011;1662;49.310;8.134;2023-12-14T13:56:20;2.80;;;2.57;;
3299;SDS011;1662;49.310;8.134;2023-12-14T13:58:46;2.30;;;2.20;;
3299;SDS011;1662;49.310;8.134;2023-12-14T14:01:12;2.27;;;2.17;;
3299;SDS011;1662;49.310;8.134;2023-12-14T14:03:38;2.30;;;2.10;;
3299;SDS011;1662;49.310;8.134;2023-12-14T14:06:06;2.97;;;2.70;;
3299;SDS011;1662;49.310;8.134;2023-12-14T14:08:32;3.00;;;2.80;;
3299;SDS011;1662;49.310;8.134;2023-12-14T14:10:58;2.43;;;2.23;;
3299;SDS011;1662;49.310;8.134;2023-12-14T14:13:24;2.13;;;2.03;;
3299;SDS011;1662;49.310;8.134;2023-12-14T14:15:50;2.37;;;2.17;;
3299;SDS011;1662;49.310;8.134;2023-12-14T14:18:15;2.90;;;2.70;;
3299;SDS011;1662;49.310;8.134;2023-12-14T14:20:41;5.23;;;2.43;;
3299;SDS011;1662;49.310;8.134;2023-12-14T14:23:07;2.50;;;2.40;;
3299;SDS011;1662;49.310;8.134;2023-12-14T14:25:33;2.57;;;2.37;;
3299;SDS011;1662;49.310;8.134;2023-12-14T14:27:59;2.57;;;2.37;;
3299;SDS011;1662;49.310;8.134;2023-12-14T14:30:27;2.97;;;2.77;;
3299;SDS011;1662;49.310;8.134;2023-12-14T14:32:55;4.53;;;2.47;;
3299;SDS011;1662;49.310;8.134;2023-12-14T14:35:21;2.47;;;2.30;;
3299;SDS011;1662;49.310;8.134;2023-12-14T14:37:48;2.13;;;1.90;;
3299;SDS011;1662;49.310;8.134;2023-12-14T14:40:15;2.43;;;2.33;;
3299;SDS011;1662;49.310;8.134;2023-12-14T14:42:41;2.10;;;2.00;;
3299;SDS011;1662;49.310;8.134;2023-12-14T14:45:08;2.40;;;2.20;;
3299;SDS011;1662;49.310;8.134;2023-12-14T14:47:34;1.70;;;1.60;;
3299;SDS011;1662;49.310;8.134;2023-12-14T14:50:00;2.93;;;2.50;;
3299;SDS011;1662;49.310;8.134;2023-12-14T14:52:29;3.30;;;3.10;;
3299;SDS011;1662;49.310;8.134;2023-12-14T14:54:58;2.30;;;2.10;;
3299;SDS011;1662;49.310;8.134;2023-12-14T14:57:26;1.80;;;1.70;;
3299;SDS011;1662;49.310;8.134;2023-12-14T14:59:52;2.10;;;2.00;;
3299;SDS011;1662;49.310;8.134;2023-12-14T15:02:18;2.63;;;2.53;;
3299;SDS011;1662;49.310;8.134;2023-12-14T15:04:46;2.30;;;2.20;;
3299;SDS011;1662;49.310;8.134;2023-12-14T15:07:11;1.60;;;1.50;;
3299;SDS011;1662;49.310;8.134;2023-12-14T15:09:37;2.00;;;1.90;;
3299;SDS011;1662;49.310;8.134;2023-12-14T15:12:04;1.73;;;1.63;;
3299;SDS011;1662;49.310;8.134;2023-12-14T15:14:29;2.00;;;1.90;;
3299;SDS011;1662;49.310;8.134;2023-12-14T15:16:56;1.77;;;1.67;;
3299;SDS011;1662;49.310;8.134;2023-12-14T15:19:21;2.07;;;1.97;;
3299;SDS011;1662;49.310;8.134;2023-12-14T15:21:47;1.93;;;1.83;;
3299;SDS011;1662;49.310;8.134;2023-12-14T15:24:15;1.77;;;1.67;;